Time;durP1;ratioP1;P1;durP2;ratioP2;P2;SDS_P1;SDS_P2;PMS_P1;PMS_P2;Temp;Humidity;BMP_temperature;BMP_pressure;BME280_temperature;BME280_humidity;BME280_pressure;Samples;Min_cycle;Max_cycle;Signal;HPM_P1;HPM_P2
2022/09/03 00:02:17;;;;;;;11.05;10.35;;;;;;;;;;4999847;28;20053;-59
2022/09/03 00:04:52;;;;;;;11.27;10.57;;;;;;;;;;4999000;28;20050;-59
2022/09/03 00:07:29;;;;;;;11.80;11.10;;;;;;;;;;5001068;28;20337;-60
2022/09/03 00:10:04;;;;;;;11.07;10.25;;;;;;;;;;4999748;28;20034;-59
2022/09/03 00:12:35;;;;;;;9.40;8.80;;;;;;;;;;4996768;28;20372;-59
2022/09/03 00:15:22;;;;;;;10.00;9.30;;;;;;;;;;4997760;28;20030;-59
2022/09/03 00:17:55;;;;;;;11.57;10.88;;;;;;;;;;4994808;28;20057;-59
2022/09/03 00:20:32;;;;;;;10.05;9.45;;;;;;;;;;4998734;28;20033;-59
2022/09/03 00:23:02;;;;;;;10.43;9.68;;;;;;;;;;4998426;28;20357;-59
2022/09/03 00:25:49;;;;;;;10.90;10.20;;;;;;;;;;4997568;28;20037;-59
2022/09/03 00:28:24;;;;;;;9.63;9.02;;;;;;;;;;4999318;28;20683;-59
2022/09/03 00:31:06;;;;;;;13.60;12.80;;;;;;;;;;4998293;28;20333;-59
2022/09/03 00:33:32;;;;;;;10.30;9.60;;;;;;;;;;4997082;28;20046;-59
2022/09/03 00:36:00;;;;;;;10.13;9.52;;;;;;;;;;5001104;28;20053;-59
2022/09/03 00:38:28;;;;;;;9.73;9.13;;;;;;;;;;4997431;28;20095;-59
2022/09/03 00:41:20;;;;;;;9.65;9.02;;;;;;;;;;4997650;28;20126;-59
2022/09/03 00:43:54;;;;;;;8.10;7.60;;;;;;;;;;4998827;28;20042;-59
2022/09/03 00:46:47;;;;;;;9.98;9.38;;;;;;;;;;4998508;28;20087;-59
2022/09/03 00:49:31;;;;;;;9.00;8.40;;;;;;;;;;4997333;28;20487;-59
2022/09/03 00:52:14;;;;;;;9.18;8.57;;;;;;;;;;4998544;28;20041;-59
2022/09/03 00:55:05;;;;;;;9.52;8.93;;;;;;;;;;4998096;28;20092;-59
2022/09/03 00:57:57;;;;;;;8.82;8.23;;;;;;;;;;4998789;28;20034;-59
2022/09/03 01:00:22;;;;;;;8.30;7.70;;;;;;;;;;4999293;28;20116;-59
2022/09/03 01:03:13;;;;;;;9.43;8.82;;;;;;;;;;4997268;28;20066;-59
2022/09/03 01:05:51;;;;;;;8.32;7.82;;;;;;;;;;4995407;28;20034;-59
2022/09/03 01:08:32;;;;;;;8.95;8.35;;;;;;;;;;4997130;28;20046;-59
2022/09/03 01:11:18;;;;;;;8.77;8.18;;;;;;;;;;4996521;28;20050;-59
2022/09/03 01:14:06;;;;;;;8.70;8.13;;;;;;;;;;4998641;28;20038;-59
2022/09/03 01:16:45;;;;;;;9.38;8.77;;;;;;;;;;4997589;28;20037;-59
2022/09/03 01:19:34;;;;;;;8.82;8.23;;;;;;;;;;4996600;28;20026;-59
2022/09/03 01:22:49;;;;;;;9.52;8.82;;;;;;;;;;4999016;28;20539;-59
2022/09/03 01:25:30;;;;;;;9.20;8.60;;;;;;;;;;4997632;28;20101;-59
2022/09/03 01:28:23;;;;;;;8.13;7.63;;;;;;;;;;4993006;28;20034;-59
2022/09/03 01:30:57;;;;;;;9.65;9.05;;;;;;;;;;4997842;28;20038;-59
2022/09/03 01:33:37;;;;;;;8.63;8.10;;;;;;;;;;4999121;28;20188;-59
2022/09/03 01:36:30;;;;;;;8.52;7.95;;;;;;;;;;4999741;28;20034;-58
2022/09/03 01:39:00;;;;;;;8.07;7.57;;;;;;;;;;4997501;28;20129;-59
2022/09/03 01:42:15;;;;;;;8.90;8.30;;;;;;;;;;4997247;28;20054;-58
2022/09/03 01:45:18;;;;;;;7.47;6.97;;;;;;;;;;4997138;28;20053;-58
2022/09/03 01:47:55;;;;;;;7.78;7.28;;;;;;;;;;4995976;28;20479;-58
2022/09/03 01:50:25;;;;;;;8.38;7.88;;;;;;;;;;4998349;28;20042;-58
2022/09/03 01:52:55;;;;;;;8.00;7.50;;;;;;;;;;4997523;28;20111;-58
2022/09/03 01:55:31;;;;;;;9.25;8.65;;;;;;;;;;4999732;28;20022;-58
2022/09/03 01:58:07;;;;;;;7.32;6.82;;;;;;;;;;4996103;28;20116;-58
2022/09/03 02:00:34;;;;;;;8.27;7.78;;;;;;;;;;4996106;28;20053;-59
2022/09/03 02:03:04;;;;;;;8.00;7.50;;;;;;;;;;4999205;28;20071;-58
2022/09/03 02:05:30;;;;;;;8.80;8.20;;;;;;;;;;4996932;28;20036;-58
2022/09/03 02:08:01;;;;;;;9.25;8.65;;;;;;;;;;4996545;28;20038;-58
2022/09/03 02:10:44;;;;;;;8.85;8.25;;;;;;;;;;4999800;28;20079;-58
2022/09/03 02:13:17;;;;;;;8.50;8.00;;;;;;;;;;4998202;28;20172;-58
2022/09/03 02:15:45;;;;;;;7.90;7.40;;;;;;;;;;4999759;28;20033;-58
2022/09/03 02:18:23;;;;;;;10.05;9.25;;;;;;;;;;4998039;28;20486;-57
2022/09/03 02:20:51;;;;;;;9.02;8.43;;;;;;;;;;4995597;28;20105;-58
2022/09/03 02:23:17;;;;;;;8.90;8.30;;;;;;;;;;4996984;28;20050;-58
2022/09/03 02:25:49;;;;;;;9.52;8.93;;;;;;;;;;4996161;28;20088;-58
2022/09/03 02:28:14;;;;;;;8.70;8.10;;;;;;;;;;4998281;28;20037;-58
2022/09/03 02:30:41;;;;;;;9.82;9.20;;;;;;;;;;4997930;28;20466;-58
2022/09/03 02:33:07;;;;;;;8.50;7.90;;;;;;;;;;4995707;28;20038;-59
2022/09/03 02:35:33;;;;;;;8.48;7.97;;;;;;;;;;5004730;28;20081;-59
2022/09/03 02:38:21;;;;;;;9.55;8.95;;;;;;;;;;4999311;28;20038;-59
2022/09/03 02:40:46;;;;;;;8.63;8.10;;;;;;;;;;4996667;28;20038;-59
2022/09/03 02:43:18;;;;;;;8.45;7.95;;;;;;;;;;4996887;28;20835;-59
2022/09/03 02:45:49;;;;;;;9.45;8.85;;;;;;;;;;4993055;28;20125;-59
2022/09/03 02:48:16;;;;;;;;;;;;;;;;;;4995983;28;20033;-59
2022/09/03 02:50:42;;;;;;;8.52;8.02;;;;;;;;;;4997118;28;20024;-59
2022/09/03 02:53:08;;;;;;;10.02;9.43;;;;;;;;;;4995266;28;20121;-59
2022/09/03 02:55:34;;;;;;;9.18;8.57;;;;;;;;;;4994047;28;20060;-59
2022/09/03 02:58:00;;;;;;;9.20;8.55;;;;;;;;;;4996755;28;20042;-59
2022/09/03 03:00:27;;;;;;;8.90;8.32;;;;;;;;;;4996890;28;20109;-59
2022/09/03 03:02:54;;;;;;;8.90;8.30;;;;;;;;;;5001842;28;20065;-59
2022/09/03 03:05:45;;;;;;;9.15;8.55;;;;;;;;;;4997578;28;20029;-59
2022/09/03 03:08:13;;;;;;;9.93;9.32;;;;;;;;;;4992911;28;20034;-59
2022/09/03 03:10:40;;;;;;;10.35;9.75;;;;;;;;;;4994051;28;20480;-59
2022/09/03 03:13:06;;;;;;;9.57;8.98;;;;;;;;;;4993503;28;20075;-59
2022/09/03 03:15:31;;;;;;;9.10;8.50;;;;;;;;;;4995674;28;20740;-59
2022/09/03 03:17:57;;;;;;;9.00;8.40;;;;;;;;;;5000623;28;20030;-59
2022/09/03 03:20:23;;;;;;;9.68;9.07;;;;;;;;;;4999620;28;20038;-59
2022/09/03 03:22:48;;;;;;;9.10;8.50;;;;;;;;;;5001275;28;20109;-59
2022/09/03 03:25:13;;;;;;;8.50;8.00;;;;;;;;;;5002190;28;20018;-59
2022/09/03 03:27:40;;;;;;;9.25;8.65;;;;;;;;;;5000439;28;20018;-59
2022/09/03 03:30:08;;;;;;;9.20;8.60;;;;;;;;;;4997930;28;20038;-59
2022/09/03 03:32:35;;;;;;;10.05;9.45;;;;;;;;;;5002188;28;20046;-59
2022/09/03 03:35:00;;;;;;;9.35;8.75;;;;;;;;;;5000833;28;20031;-59
2022/09/03 03:37:25;;;;;;;10.07;9.48;;;;;;;;;;4999504;28;20042;-59
2022/09/03 03:39:51;;;;;;;10.07;9.48;;;;;;;;;;5000170;28;20029;-59
2022/09/03 03:42:16;;;;;;;9.52;8.90;;;;;;;;;;5000250;28;20054;-59
2022/09/03 03:44:42;;;;;;;10.45;9.85;;;;;;;;;;4999075;28;20113;-59
2022/09/03 03:47:08;;;;;;;9.10;8.50;;;;;;;;;;5000423;28;20567;-59
2022/09/03 03:49:33;;;;;;;9.43;8.82;;;;;;;;;;4995182;28;20049;-59
2022/09/03 03:51:59;;;;;;;9.57;8.98;;;;;;;;;;5008349;28;20164;-59
2022/09/03 03:54:24;;;;;;;10.35;9.75;;;;;;;;;;4999857;28;20118;-59
2022/09/03 03:56:49;;;;;;;9.10;8.50;;;;;;;;;;5000377;28;20034;-58
2022/09/03 03:59:15;;;;;;;9.52;8.93;;;;;;;;;;4997511;28;20068;-59
2022/09/03 04:01:40;;;;;;;9.32;8.73;;;;;;;;;;5001108;28;20038;-59
2022/09/03 04:04:05;;;;;;;10.05;9.45;;;;;;;;;;4999988;28;20101;-59
2022/09/03 04:06:31;;;;;;;9.00;8.40;;;;;;;;;;4994993;28;20030;-58
2022/09/03 04:08:56;;;;;;;10.70;10.05;;;;;;;;;;4997028;28;20148;-59
2022/09/03 04:11:23;;;;;;;10.05;9.35;;;;;;;;;;4998622;28;20053;-59
2022/09/03 04:13:50;;;;;;;10.45;9.85;;;;;;;;;;4998859;28;20022;-59
2022/09/03 04:16:20;;;;;;;9.80;9.20;;;;;;;;;;4999236;28;20133;-59
2022/09/03 04:18:48;;;;;;;8.73;8.13;;;;;;;;;;4998599;28;20035;-59
2022/09/03 04:21:18;;;;;;;9.07;8.48;;;;;;;;;;4999927;28;20044;-58
2022/09/03 04:23:45;;;;;;;10.07;9.48;;;;;;;;;;5001107;28;20092;-59
2022/09/03 04:26:13;;;;;;;10.90;10.18;;;;;;;;;;4998591;28;20062;-59
2022/09/03 04:28:40;;;;;;;11.25;10.55;;;;;;;;;;4997635;28;20049;-58
2022/09/03 04:31:08;;;;;;;10.65;10.05;;;;;;;;;;4999193;28;20030;-59
2022/09/03 04:33:34;;;;;;;9.93;9.32;;;;;;;;;;5000339;28;20026;-59
2022/09/03 04:36:11;;;;;;;10.82;10.13;;;;;;;;;;4997392;28;20515;-59
2022/09/03 04:38:39;;;;;;;10.90;10.20;;;;;;;;;;4995794;28;20038;-59
2022/09/03 04:41:12;;;;;;;10.35;9.75;;;;;;;;;;5000542;28;20034;-59
2022/09/03 04:43:38;;;;;;;9.98;9.38;;;;;;;;;;4998557;28;20030;-59
2022/09/03 04:46:06;;;;;;;11.85;11.00;;;;;;;;;;4998437;28;20038;-59
2022/09/03 04:48:33;;;;;;;12.27;11.57;;;;;;;;;;4999920;28;20034;-59
2022/09/03 04:51:04;;;;;;;11.73;11.02;;;;;;;;;;4997649;28;20073;-59
2022/09/03 04:53:34;;;;;;;11.05;10.38;;;;;;;;;;5000946;28;20033;-59
2022/09/03 04:56:00;;;;;;;11.07;10.37;;;;;;;;;;5000186;28;20030;-58
2022/09/03 04:58:25;;;;;;;10.82;10.15;;;;;;;;;;4999961;28;20030;-59
2022/09/03 05:00:51;;;;;;;10.27;9.68;;;;;;;;;;4997348;28;20054;-58
2022/09/03 05:03:17;;;;;;;10.45;9.85;;;;;;;;;;4993526;28;20169;-59
2022/09/03 05:05:50;;;;;;;10.63;9.98;;;;;;;;;;4994511;28;20116;-59
2022/09/03 05:08:15;;;;;;;11.80;11.10;;;;;;;;;;4997082;28;20383;-59
2022/09/03 05:10:40;;;;;;;13.82;12.98;;;;;;;;;;5000773;28;20038;-59
2022/09/03 05:13:06;;;;;;;11.93;11.23;;;;;;;;;;4995658;28;20080;-59
2022/09/03 05:15:32;;;;;;;12.52;11.82;;;;;;;;;;4994558;28;20041;-59
2022/09/03 05:17:58;;;;;;;12.10;11.40;;;;;;;;;;4997255;28;20518;-59
2022/09/03 05:20:25;;;;;;;12.63;11.93;;;;;;;;;;4991675;28;20034;-61
2022/09/03 05:22:51;;;;;;;11.40;10.70;;;;;;;;;;4996330;28;20057;-62
2022/09/03 05:25:16;;;;;;;13.90;13.10;;;;;;;;;;4997625;28;20384;-61
2022/09/03 05:27:42;;;;;;;11.60;10.90;;;;;;;;;;4997034;28;20053;-61
2022/09/03 05:30:08;;;;;;;14.05;13.25;;;;;;;;;;4998422;28;20036;-61
2022/09/03 05:32:33;;;;;;;12.40;11.70;;;;;;;;;;4999293;28;20381;-62
2022/09/03 05:34:59;;;;;;;12.82;12.10;;;;;;;;;;4996684;28;20046;-61
2022/09/03 05:37:24;;;;;;;11.85;11.15;;;;;;;;;;4996432;28;20038;-61
2022/09/03 05:39:49;;;;;;;12.40;11.70;;;;;;;;;;4998887;28;20022;-61
2022/09/03 05:42:15;;;;;;;14.20;13.40;;;;;;;;;;4999262;28;20058;-61
2022/09/03 05:44:42;;;;;;;13.00;12.20;;;;;;;;;;4998692;28;20062;-61
2022/09/03 05:47:08;;;;;;;14.38;13.55;;;;;;;;;;4994365;28;20450;-60
2022/09/03 05:49:33;;;;;;;14.15;13.25;;;;;;;;;;4996761;28;20022;-61
2022/09/03 05:51:58;;;;;;;13.05;12.25;;;;;;;;;;4998006;28;20030;-62
2022/09/03 05:54:25;;;;;;;13.93;13.13;;;;;;;;;;4996511;28;20107;-60
2022/09/03 05:56:50;;;;;;;15.38;14.48;;;;;;;;;;4998532;28;20468;-60
2022/09/03 05:59:15;;;;;;;14.30;13.50;;;;;;;;;;4994819;28;20082;-59
2022/09/03 06:01:44;;;;;;;14.63;13.82;;;;;;;;;;4999171;28;20037;-59
2022/09/03 06:04:13;;;;;;;13.63;12.82;;;;;;;;;;5000702;28;20040;-59
2022/09/03 06:06:41;;;;;;;15.07;14.18;;;;;;;;;;4997721;28;20459;-59
2022/09/03 06:09:10;;;;;;;14.38;13.48;;;;;;;;;;5001069;28;20455;-60
2022/09/03 06:11:37;;;;;;;15.35;14.45;;;;;;;;;;4994155;28;20117;-60
2022/09/03 06:14:05;;;;;;;14.43;13.63;;;;;;;;;;4998948;28;20026;-61
2022/09/03 06:16:33;;;;;;;14.48;13.65;;;;;;;;;;4996653;28;20113;-60
2022/09/03 06:18:59;;;;;;;11.50;10.80;;;;;;;;;;4993886;28;20042;-60
2022/09/03 06:21:24;;;;;;;10.95;10.25;;;;;;;;;;4995130;28;20477;-60
2022/09/03 06:23:51;;;;;;;11.95;11.25;;;;;;;;;;4999187;28;20034;-60
2022/09/03 06:26:18;;;;;;;11.50;10.80;;;;;;;;;;4996938;28;20490;-60
2022/09/03 06:28:47;;;;;;;12.20;11.40;;;;;;;;;;4994364;28;20068;-60
2022/09/03 06:31:17;;;;;;;10.73;10.07;;;;;;;;;;4996947;28;20454;-60
2022/09/03 06:33:43;;;;;;;;;;;;;;;;;;5000464;28;20471;-60
2022/09/03 06:36:14;;;;;;;8.60;8.07;;;;;;;;;;4994710;28;19914;-60
2022/09/03 06:38:40;;;;;;;8.38;7.85;;;;;;;;;;4998032;28;20022;-61
2022/09/03 06:41:22;;;;;;;8.40;7.88;;;;;;;;;;4996054;28;20080;-61
2022/09/03 06:43:48;;;;;;;8.57;7.97;;;;;;;;;;4993429;28;20570;-61
2022/09/03 06:46:16;;;;;;;9.65;9.05;;;;;;;;;;4995540;28;20030;-61
2022/09/03 06:48:41;;;;;;;11.05;10.35;;;;;;;;;;4994157;28;20034;-61
2022/09/03 06:51:09;;;;;;;9.75;9.15;;;;;;;;;;4997093;28;20030;-61
2022/09/03 06:53:43;;;;;;;11.30;10.60;;;;;;;;;;5002124;28;20037;-61
2022/09/03 06:56:11;;;;;;;11.52;10.82;;;;;;;;;;4997165;28;20034;-61
2022/09/03 06:58:44;;;;;;;10.32;9.73;;;;;;;;;;5001434;28;20026;-62
2022/09/03 07:01:14;;;;;;;9.15;8.55;;;;;;;;;;5002136;28;20034;-61
2022/09/03 07:03:41;;;;;;;8.35;7.78;;;;;;;;;;4996237;28;20092;-62
2022/09/03 07:06:12;;;;;;;9.00;8.40;;;;;;;;;;4999247;28;20488;-62
2022/09/03 07:08:38;;;;;;;9.13;8.52;;;;;;;;;;4998336;28;20041;-62
2022/09/03 07:11:08;;;;;;;9.60;9.00;;;;;;;;;;5001248;28;20030;-62
2022/09/03 07:13:34;;;;;;;7.68;7.10;;;;;;;;;;4998430;28;20120;-62
2022/09/03 07:16:06;;;;;;;8.63;7.93;;;;;;;;;;4991187;28;20026;-62
2022/09/03 07:18:32;;;;;;;8.50;8.00;;;;;;;;;;4996676;28;20401;-62
2022/09/03 07:21:08;;;;;;;8.20;7.70;;;;;;;;;;4998224;28;20041;-61
2022/09/03 07:23:36;;;;;;;8.45;7.93;;;;;;;;;;4996170;28;20041;-61
2022/09/03 07:26:05;;;;;;;9.10;8.50;;;;;;;;;;4997110;28;20404;-61
2022/09/03 07:28:33;;;;;;;8.55;7.95;;;;;;;;;;5000204;28;20030;-61
2022/09/03 07:31:14;;;;;;;8.43;7.93;;;;;;;;;;4997521;28;20045;-61
2022/09/03 07:33:40;;;;;;;8.23;7.72;;;;;;;;;;4997647;28;20041;-62
2022/09/03 07:36:08;;;;;;;8.90;8.30;;;;;;;;;;4998531;28;20045;-61
2022/09/03 07:38:35;;;;;;;8.65;8.05;;;;;;;;;;4997329;28;20034;-61
2022/09/03 07:41:03;;;;;;;8.35;7.82;;;;;;;;;;4997660;28;20047;-63
2022/09/03 07:43:34;;;;;;;10.00;9.40;;;;;;;;;;4998313;28;20026;-61
2022/09/03 07:46:00;;;;;;;10.45;9.82;;;;;;;;;;4998810;28;20038;-63
2022/09/03 07:48:25;;;;;;;10.73;10.13;;;;;;;;;;4998223;28;20041;-63
2022/09/03 07:50:52;;;;;;;11.40;10.70;;;;;;;;;;4993911;28;20045;-64
2022/09/03 07:53:19;;;;;;;14.23;13.43;;;;;;;;;;4997221;28;20108;-67
2022/09/03 07:55:45;;;;;;;11.85;11.15;;;;;;;;;;4999324;28;20593;-68
2022/09/03 07:58:12;;;;;;;18.08;16.85;;;;;;;;;;4998052;28;20034;-69
2022/09/03 08:00:38;;;;;;;18.92;17.88;;;;;;;;;;4995768;28;20030;-69
2022/09/03 08:03:07;;;;;;;25.75;24.38;;;;;;;;;;4998347;28;20042;-70
2022/09/03 08:05:35;;;;;;;35.80;33.88;;;;;;;;;;4996464;28;20570;-70
2022/09/03 08:08:04;;;;;;;23.58;22.15;;;;;;;;;;4996203;28;20310;-70
2022/09/03 08:10:31;;;;;;;68.00;64.32;;;;;;;;;;4999442;28;20054;-70
2022/09/03 08:12:57;;;;;;;65.80;62.15;;;;;;;;;;4999037;28;20065;-73
2022/09/03 08:15:24;;;;;;;85.10;80.45;;;;;;;;;;4998518;28;20045;-71
2022/09/03 08:17:50;;;;;;;111.63;105.40;;;;;;;;;;4997987;28;20045;-71
2022/09/03 08:20:15;;;;;;;99.32;93.95;;;;;;;;;;4998142;28;20356;-71
2022/09/03 08:22:40;;;;;;;67.28;63.83;;;;;;;;;;4998420;28;20030;-70
2022/09/03 08:25:06;;;;;;;66.78;63.38;;;;;;;;;;4999523;28;20099;-70
2022/09/03 08:27:32;;;;;;;139.48;132.32;;;;;;;;;;4985168;28;20042;-69
2022/09/03 08:29:57;;;;;;;151.57;143.82;;;;;;;;;;4996524;28;20042;-71
2022/09/03 08:32:22;;;;;;;107.60;102.10;;;;;;;;;;4985815;28;20050;-72
2022/09/03 08:34:49;;;;;;;110.00;104.43;;;;;;;;;;4996948;28;20034;-70
2022/09/03 08:37:15;;;;;;;121.82;115.65;;;;;;;;;;4995620;28;20356;-73
2022/09/03 08:39:40;;;;;;;119.85;113.78;;;;;;;;;;4998666;28;20030;-72
2022/09/03 08:42:45;;;;;;;107.75;102.22;;;;;;;;;;4993080;28;20133;-71
2022/09/03 08:45:16;;;;;;;79.55;75.40;;;;;;;;;;4998467;28;20133;-72
2022/09/03 08:47:49;;;;;;;41.90;39.72;;;;;;;;;;4998373;28;20433;-70
2022/09/03 08:50:18;;;;;;;38.42;36.38;;;;;;;;;;4995922;28;20678;-70
2022/09/03 08:52:49;;;;;;;36.33;34.40;;;;;;;;;;4996496;28;20476;-71
2022/09/03 08:55:26;;;;;;;18.90;17.85;;;;;;;;;;4994014;28;20124;-68
2022/09/03 08:58:28;;;;;;;11.60;10.90;;;;;;;;;;4995652;28;20030;-70
2022/09/03 09:01:05;;;;;;;23.00;21.67;;;;;;;;;;4994796;28;20044;-70
2022/09/03 09:03:57;;;;;;;14.05;13.25;;;;;;;;;;4995049;28;20113;-71
2022/09/03 09:06:29;;;;;;;13.32;12.52;;;;;;;;;;4996862;28;20070;-68
2022/09/03 09:09:17;;;;;;;13.48;12.68;;;;;;;;;;4996770;28;20631;-69
2022/09/03 09:12:21;;;;;;;15.38;14.50;;;;;;;;;;4996747;28;20033;-69
2022/09/03 09:14:59;;;;;;;13.50;12.70;;;;;;;;;;4969588;28;20612;-68
2022/09/03 09:17:59;;;;;;;15.25;14.35;;;;;;;;;;4995719;28;20034;-68
2022/09/03 09:20:41;;;;;;;16.02;14.93;;;;;;;;;;4999319;28;20027;-68
2022/09/03 09:23:25;;;;;;;14.85;13.95;;;;;;;;;;4997797;28;20030;-67
2022/09/03 09:25:53;;;;;;;14.35;13.55;;;;;;;;;;4997138;28;20103;-68
2022/09/03 09:28:32;;;;;;;14.73;13.88;;;;;;;;;;4994824;28;20115;-68
2022/09/03 09:31:00;;;;;;;15.13;14.23;;;;;;;;;;4999193;28;20121;-68
2022/09/03 09:33:29;;;;;;;17.42;16.42;;;;;;;;;;4996844;28;20064;-68
2022/09/03 09:35:54;;;;;;;14.05;13.25;;;;;;;;;;4994983;28;20044;-68
2022/09/03 09:38:28;;;;;;;15.35;14.45;;;;;;;;;;4994860;28;20034;-67
2022/09/03 09:40:56;;;;;;;13.95;13.15;;;;;;;;;;4998559;28;20034;-69
2022/09/03 09:43:21;;;;;;;15.13;14.13;;;;;;;;;;4993109;28;20113;-67
2022/09/03 09:45:50;;;;;;;14.98;14.13;;;;;;;;;;4997451;28;20181;-67
2022/09/03 09:48:30;;;;;;;16.52;15.57;;;;;;;;;;4996082;28;20036;-67
2022/09/03 09:51:11;;;;;;;16.48;15.57;;;;;;;;;;4994729;28;20043;-67
2022/09/03 09:53:38;;;;;;;16.52;15.63;;;;;;;;;;4996533;28;20125;-66
2022/09/03 09:56:04;;;;;;;19.40;18.35;;;;;;;;;;4995681;28;20114;-68
2022/09/03 09:58:31;;;;;;;20.25;18.85;;;;;;;;;;4997112;28;20033;-67
2022/09/03 10:01:01;;;;;;;18.85;17.80;;;;;;;;;;4998151;28;20029;-68
2022/09/03 10:03:29;;;;;;;17.95;16.95;;;;;;;;;;4997603;28;20056;-69
2022/09/03 10:06:52;;;;;;;21.10;19.90;;;;;;;;;;4997093;28;20049;-66
2022/09/03 10:08:51;;;;;;;19.88;18.77;;;;;;;;;;4994047;28;20037;-67
2022/09/03 10:11:20;;;;;;;23.30;22.02;;;;;;;;;;4995911;28;20096;-66
2022/09/03 10:13:47;;;;;;;19.23;17.55;;;;;;;;;;4998078;28;20065;-67
2022/09/03 10:16:20;;;;;;;23.42;22.17;;;;;;;;;;4996499;28;20068;-67
2022/09/03 10:19:01;;;;;;;24.13;22.83;;;;;;;;;;4995703;28;20376;-67
2022/09/03 10:21:34;;;;;;;;;;;;;;;;;;4995759;28;20026;-67
2022/09/03 10:24:20;;;;;;;16.13;15.23;;;;;;;;;;4995858;28;19917;-67
2022/09/03 10:26:46;;;;;;;16.17;15.27;;;;;;;;;;4997050;28;20025;-66
2022/09/03 10:29:19;;;;;;;21.73;20.50;;;;;;;;;;4998677;28;20034;-66
2022/09/03 10:31:57;;;;;;;18.23;17.23;;;;;;;;;;4999643;28;20034;-65
2022/09/03 10:34:36;;;;;;;16.42;15.50;;;;;;;;;;4997758;28;20042;-64
2022/09/03 10:37:08;;;;;;;18.05;17.05;;;;;;;;;;4996127;28;20048;-65
2022/09/03 10:40:01;;;;;;;23.08;21.83;;;;;;;;;;4994871;28;20052;-64
2022/09/03 10:43:07;;;;;;;16.17;15.27;;;;;;;;;;4994406;28;20037;-66
2022/09/03 10:46:09;;;;;;;18.48;17.48;;;;;;;;;;4997182;28;20113;-65
2022/09/03 10:49:03;;;;;;;17.10;16.10;;;;;;;;;;4995312;28;20038;-65
2022/09/03 10:51:41;;;;;;;17.33;16.35;;;;;;;;;;4995276;28;20034;-65
2022/09/03 10:54:23;;;;;;;17.83;16.83;;;;;;;;;;4996131;28;20057;-65
2022/09/03 10:57:06;;;;;;;18.95;17.85;;;;;;;;;;4995306;28;20048;-64
2022/09/03 10:59:39;;;;;;;17.05;16.10;;;;;;;;;;4994725;28;20030;-65
2022/09/03 11:02:30;;;;;;;16.02;15.13;;;;;;;;;;4997026;28;20037;-65
2022/09/03 11:05:07;;;;;;;16.80;15.88;;;;;;;;;;4980610;28;20084;-65
2022/09/03 11:07:38;;;;;;;17.95;16.95;;;;;;;;;;4994044;28;20030;-66
2022/09/03 11:10:20;;;;;;;18.48;17.45;;;;;;;;;;5010037;28;20161;-66
2022/09/03 11:12:57;;;;;;;48.75;46.28;;;;;;;;;;4997546;28;20080;-66
2022/09/03 11:15:31;;;;;;;17.67;16.67;;;;;;;;;;5000966;28;20034;-65
2022/09/03 11:18:19;;;;;;;23.50;22.20;;;;;;;;;;4985153;28;20045;-66
2022/09/03 11:20:48;;;;;;;20.67;19.52;;;;;;;;;;4994038;28;20061;-66
2022/09/03 11:23:14;;;;;;;20.23;19.13;;;;;;;;;;5001813;28;20048;-66
2022/09/03 11:25:45;;;;;;;17.65;16.65;;;;;;;;;;4978180;28;20117;-66
2022/09/03 11:28:33;;;;;;;16.92;15.95;;;;;;;;;;4994315;28;20046;-65
2022/09/03 11:31:24;;;;;;;14.88;14.02;;;;;;;;;;4996221;28;20353;-66
2022/09/03 11:34:00;;;;;;;17.20;16.23;;;;;;;;;;4995810;28;20045;-67
2022/09/03 11:36:32;;;;;;;19.50;18.40;;;;;;;;;;4996298;28;20036;-67
2022/09/03 11:38:57;;;;;;;18.23;17.17;;;;;;;;;;4997438;28;20431;-67
2022/09/03 11:41:26;;;;;;;21.42;20.23;;;;;;;;;;5000465;28;20050;-66
2022/09/03 11:43:52;;;;;;;20.55;19.45;;;;;;;;;;4998338;28;20030;-66
2022/09/03 11:46:21;;;;;;;22.17;20.98;;;;;;;;;;5002622;28;20336;-67
2022/09/03 11:49:08;;;;;;;21.55;20.38;;;;;;;;;;5001599;28;20053;-65
2022/09/03 11:51:36;;;;;;;20.95;19.80;;;;;;;;;;4995969;28;20455;-64
2022/09/03 11:54:05;;;;;;;21.77;20.58;;;;;;;;;;4999641;28;20364;-64
2022/09/03 11:56:33;;;;;;;18.27;17.17;;;;;;;;;;5000531;28;20066;-64
2022/09/03 11:59:06;;;;;;;18.85;17.85;;;;;;;;;;5005550;28;20042;-63
2022/09/03 12:01:34;;;;;;;15.68;14.77;;;;;;;;;;4989106;28;20069;-64
2022/09/03 12:04:06;;;;;;;15.73;14.82;;;;;;;;;;4998131;28;20033;-63
2022/09/03 12:07:05;;;;;;;14.60;13.77;;;;;;;;;;5003075;28;20030;-63
2022/09/03 12:09:54;;;;;;;14.77;13.98;;;;;;;;;;4993596;28;20040;-63
2022/09/03 12:12:37;;;;;;;12.50;11.80;;;;;;;;;;4999129;28;20121;-64
2022/09/03 12:15:33;;;;;;;15.50;14.60;;;;;;;;;;5001043;28;20129;-66
2022/09/03 12:18:19;;;;;;;16.98;15.88;;;;;;;;;;4995463;28;20063;-64
2022/09/03 12:20:59;;;;;;;18.45;17.45;;;;;;;;;;4997358;28;20069;-64
2022/09/03 12:23:49;;;;;;;15.85;14.95;;;;;;;;;;4996049;28;20037;-64
2022/09/03 12:26:22;;;;;;;13.40;12.60;;;;;;;;;;5000266;28;20065;-65
2022/09/03 12:28:54;;;;;;;13.40;12.60;;;;;;;;;;4997546;28;20037;-65
2022/09/03 12:31:23;;;;;;;20.25;19.08;;;;;;;;;;5003364;28;20026;-65
2022/09/03 12:33:52;;;;;;;14.90;14.10;;;;;;;;;;4999372;28;20491;-65
2022/09/03 12:36:19;;;;;;;15.77;14.88;;;;;;;;;;4996226;28;20390;-67
2022/09/03 12:38:46;;;;;;;15.32;14.43;;;;;;;;;;5011707;28;20503;-65
2022/09/03 12:41:38;;;;;;;13.43;12.63;;;;;;;;;;5000636;28;20525;-65
2022/09/03 12:44:04;;;;;;;12.20;11.50;;;;;;;;;;4996620;28;20049;-64
2022/09/03 12:46:32;;;;;;;10.13;9.52;;;;;;;;;;4996249;28;20038;-64
2022/09/03 12:49:04;;;;;;;14.15;13.35;;;;;;;;;;4996029;28;20030;-64
2022/09/03 12:51:36;;;;;;;11.57;10.88;;;;;;;;;;5001944;28;20120;-65
2022/09/03 12:54:04;;;;;;;11.30;10.60;;;;;;;;;;4996578;28;20117;-65
2022/09/03 12:56:32;;;;;;;11.05;10.35;;;;;;;;;;5001684;28;20100;-64
2022/09/03 12:59:05;;;;;;;9.95;9.35;;;;;;;;;;4998306;28;20041;-65
2022/09/03 13:01:44;;;;;;;10.38;9.73;;;;;;;;;;4997259;28;20567;-65
2022/09/03 13:04:16;;;;;;;10.52;9.82;;;;;;;;;;4999354;28;20427;-65
2022/09/03 13:06:48;;;;;;;9.48;8.88;;;;;;;;;;4996254;28;20038;-65
2022/09/03 13:09:17;;;;;;;9.27;8.68;;;;;;;;;;4997867;28;20396;-64
2022/09/03 13:11:43;;;;;;;12.35;11.55;;;;;;;;;;4996155;28;20041;-64
2022/09/03 13:14:11;;;;;;;10.85;10.15;;;;;;;;;;4997041;28;20026;-64
2022/09/03 13:16:53;;;;;;;9.80;9.10;;;;;;;;;;4995455;28;20092;-64
2022/09/03 13:19:33;;;;;;;8.93;8.32;;;;;;;;;;4994013;28;20033;-64
2022/09/03 13:22:07;;;;;;;8.43;7.93;;;;;;;;;;4996152;28;20045;-64
2022/09/03 13:24:50;;;;;;;9.98;9.38;;;;;;;;;;4993688;28;20372;-64
2022/09/03 13:27:32;;;;;;;10.40;9.80;;;;;;;;;;4996631;28;20123;-64
2022/09/03 13:30:12;;;;;;;13.32;12.30;;;;;;;;;;4997869;28;20030;-64
2022/09/03 13:33:01;;;;;;;14.93;14.07;;;;;;;;;;4996900;28;20037;-65
2022/09/03 13:35:50;;;;;;;16.98;16.02;;;;;;;;;;4999786;28;20054;-64
2022/09/03 13:38:30;;;;;;;11.05;10.35;;;;;;;;;;4997417;28;20029;-64
2022/09/03 13:41:42;;;;;;;10.43;9.73;;;;;;;;;;4997739;28;20033;-64
2022/09/03 13:44:34;;;;;;;19.30;18.20;;;;;;;;;;4963103;28;20042;-64
2022/09/03 13:47:07;;;;;;;24.88;23.58;;;;;;;;;;4999531;28;20041;-64
2022/09/03 13:53:11;;;;;;;19.08;18.02;;;;;;;;;;4996377;28;20045;-64
2022/09/03 13:55:49;;;;;;;17.35;16.38;;;;;;;;;;4995481;28;20489;-65
2022/09/03 13:58:49;;;;;;;25.90;24.52;;;;;;;;;;4995522;28;20057;-64
2022/09/03 14:01:31;;;;;;;23.67;22.40;;;;;;;;;;4991337;28;20795;-64
2022/09/03 14:04:00;;;;;;;37.40;35.50;;;;;;;;;;4993742;28;20038;-64
2022/09/03 14:06:38;;;;;;;23.30;22.05;;;;;;;;;;4995211;28;20087;-64
2022/09/03 14:09:14;;;;;;;23.38;22.10;;;;;;;;;;4994960;28;20514;-63
2022/09/03 14:11:47;;;;;;;21.90;20.70;;;;;;;;;;4995505;28;20033;-64
2022/09/03 14:14:20;;;;;;;27.85;26.35;;;;;;;;;;4996736;28;20705;-64
2022/09/03 14:17:00;;;;;;;25.05;23.75;;;;;;;;;;4995931;28;20574;-64
2022/09/03 14:19:54;;;;;;;28.80;27.27;;;;;;;;;;4995174;28;20041;-64
2022/09/03 14:22:31;;;;;;;24.25;22.95;;;;;;;;;;5003046;28;20040;-63
2022/09/03 14:25:01;;;;;;;26.75;25.35;;;;;;;;;;4993833;28;20569;-64
2022/09/03 14:27:30;;;;;;;25.90;24.50;;;;;;;;;;4994560;28;20042;-63
2022/09/03 14:30:00;;;;;;;27.83;25.83;;;;;;;;;;4995619;28;20030;-63
2022/09/03 14:32:44;;;;;;;39.70;37.53;;;;;;;;;;4993684;28;20034;-63
2022/09/03 14:35:15;;;;;;;28.33;26.83;;;;;;;;;;4997525;28;20346;-63
2022/09/03 14:37:43;;;;;;;18.67;17.67;;;;;;;;;;4993894;28;20042;-63
2022/09/03 14:40:15;;;;;;;37.60;35.70;;;;;;;;;;4994308;28;20034;-64
2022/09/03 14:43:01;;;;;;;18.85;17.85;;;;;;;;;;4978560;28;20034;-63
2022/09/03 14:45:43;;;;;;;18.88;17.83;;;;;;;;;;4996766;28;20325;-63
2022/09/03 14:48:59;;;;;;;21.20;20.05;;;;;;;;;;4992413;28;20031;-64
2022/09/03 14:51:51;;;;;;;33.15;31.42;;;;;;;;;;4974531;28;20042;-63
2022/09/03 14:54:54;;;;;;;19.85;18.75;;;;;;;;;;4991935;28;20034;-64
2022/09/03 14:57:57;;;;;;;17.55;16.55;;;;;;;;;;4996445;28;20035;-63
2022/09/03 15:00:35;;;;;;;18.45;17.45;;;;;;;;;;4993543;28;20038;-63
2022/09/03 15:03:20;;;;;;;17.45;16.45;;;;;;;;;;4992694;28;20601;-63
2022/09/03 15:06:03;;;;;;;24.08;22.80;;;;;;;;;;4992976;28;20034;-63
2022/09/03 15:08:42;;;;;;;21.40;20.23;;;;;;;;;;4993486;28;20061;-63